Rechercher aéroport 
image banner adimage banner adimage banner ad
image banner ad

14CA - Hoag Memorial Hospital Presbyterian

Situé à Newport Beach, United States

ICAO - 14CA, IATA -

Données fournies par Airmate  

Information générale

Coordonnées: N33°37'31" W117°55'51"
Élévation : 94 feet MSL.
Variation magnétique : 14° East
Voir autres Aéroports à California

Données opérationnelles

Special qualification required
Heure actuelle UTC:
Heure actuelle locale:
METAR: KSNA 210153Z 22008KT 10SM CLR 22/17 A2991 RMK AO2 SLP125 T02220167
TAF: KSNA 202324Z 2100/2124 21010KT P6SM SKC FM210200 VRB04KT P6SM SCT010 FM210900 VRB04KT P6SM BKN010 FM211400 VRB04KT P6SM FEW010 FM212000 23008KT P6SM SKC
Voir NOTAMs / SUP AIP / TFR affectant cet aéroport [VIEW]
Fréquences de communication: [VIEW]

Pistes:

Coordonnées de l'aéroport

Adresse: Newport Beach United States

Vue satellite de 14CA